sensor_id;sensor_type;location;lat;lon;timestamp;temperature;humidity
43963;DHT22;29622;45.534;9.242;2023-04-25T00:01:08;20.30;41.70
43963;DHT22;29622;45.534;9.242;2023-04-25T00:06:09;20.00;41.40
43963;DHT22;29622;45.534;9.242;2023-04-25T00:11:10;19.90;41.80
43963;DHT22;29622;45.534;9.242;2023-04-25T00:16:10;19.80;41.90
43963;DHT22;29622;45.534;9.242;2023-04-25T00:21:13;19.80;41.80
43963;DHT22;29622;45.534;9.242;2023-04-25T00:26:15;19.70;42.00
43963;DHT22;29622;45.534;9.242;2023-04-25T00:31:16;19.90;41.90
43963;DHT22;29622;45.534;9.242;2023-04-25T00:36:17;20.10;41.80
43963;DHT22;29622;45.534;9.242;2023-04-25T00:41:18;20.20;41.70
43963;DHT22;29622;45.534;9.242;2023-04-25T00:46:20;20.30;41.70
43963;DHT22;29622;45.534;9.242;2023-04-25T00:51:21;20.30;41.60
43963;DHT22;29622;45.534;9.242;2023-04-25T00:56:22;20.10;41.70
43963;DHT22;29622;45.534;9.242;2023-04-25T01:01:23;20.00;42.00
43963;DHT22;29622;45.534;9.242;2023-04-25T01:06:27;20.10;42.10
43963;DHT22;29622;45.534;9.242;2023-04-25T01:11:28;20.30;41.90
43963;DHT22;29622;45.534;9.242;2023-04-25T01:16:29;20.40;41.80
43963;DHT22;29622;45.534;9.242;2023-04-25T01:21:30;20.40;41.70
43963;DHT22;29622;45.534;9.242;2023-04-25T01:26:31;20.50;41.50
43963;DHT22;29622;45.534;9.242;2023-04-25T01:31:33;20.40;41.40
43963;DHT22;29622;45.534;9.242;2023-04-25T01:36:35;20.50;41.50
43963;DHT22;29622;45.534;9.242;2023-04-25T01:41:36;20.50;41.40
43963;DHT22;29622;45.534;9.242;2023-04-25T01:46:37;20.20;41.30
43963;DHT22;29622;45.534;9.242;2023-04-25T01:51:39;19.90;41.50
43963;DHT22;29622;45.534;9.242;2023-04-25T01:56:40;19.60;41.60
43963;DHT22;29622;45.534;9.242;2023-04-25T02:01:44;19.40;42.10
43963;DHT22;29622;45.534;9.242;2023-04-25T02:06:53;19.30;42.20
43963;DHT22;29622;45.534;9.242;2023-04-25T02:11:55;19.30;42.20
43963;DHT22;29622;45.534;9.242;2023-04-25T02:17:16;19.40;42.20
43963;DHT22;29622;45.534;9.242;2023-04-25T02:22:18;19.20;42.20
43963;DHT22;29622;45.534;9.242;2023-04-25T02:27:20;19.10;42.40
43963;DHT22;29622;45.534;9.242;2023-04-25T02:32:21;19.10;42.50
43963;DHT22;29622;45.534;9.242;2023-04-25T02:37:21;19.00;42.40
43963;DHT22;29622;45.534;9.242;2023-04-25T02:42:22;18.90;42.40
43963;DHT22;29622;45.534;9.242;2023-04-25T02:47:24;18.70;42.50
43963;DHT22;29622;45.534;9.242;2023-04-25T02:52:25;18.70;42.70
43963;DHT22;29622;45.534;9.242;2023-04-25T02:57:33;18.60;42.90
43963;DHT22;29622;45.534;9.242;2023-04-25T03:02:34;18.40;43.10
43963;DHT22;29622;45.534;9.242;2023-04-25T03:07:35;18.20;43.20
43963;DHT22;29622;45.534;9.242;2023-04-25T03:12:36;18.10;43.30
43963;DHT22;29622;45.534;9.242;2023-04-25T03:17:38;17.90;43.50
43963;DHT22;29622;45.534;9.242;2023-04-25T03:22:38;17.80;43.80
43963;DHT22;29622;45.534;9.242;2023-04-25T03:27:39;17.70;43.90
43963;DHT22;29622;45.534;9.242;2023-04-25T03:32:40;17.60;44.10
43963;DHT22;29622;45.534;9.242;2023-04-25T03:37:41;17.50;44.20
43963;DHT22;29622;45.534;9.242;2023-04-25T03:42:46;17.40;44.50
43963;DHT22;29622;45.534;9.242;2023-04-25T03:47:47;17.40;44.90
43963;DHT22;29622;45.534;9.242;2023-04-25T03:52:48;17.40;44.80
43963;DHT22;29622;45.534;9.242;2023-04-25T03:57:49;17.70;45.00
43963;DHT22;29622;45.534;9.242;2023-04-25T04:02:50;17.80;44.80
43963;DHT22;29622;45.534;9.242;2023-04-25T04:07:53;17.80;44.80
43963;DHT22;29622;45.534;9.242;2023-04-25T04:12:54;17.60;44.80
43963;DHT22;29622;45.534;9.242;2023-04-25T04:17:55;17.40;44.80
43963;DHT22;29622;45.534;9.242;2023-04-25T04:22:56;17.30;45.00
43963;DHT22;29622;45.534;9.242;2023-04-25T04:27:58;17.30;45.20
43963;DHT22;29622;45.534;9.242;2023-04-25T04:33:10;17.10;45.80
43963;DHT22;29622;45.534;9.242;2023-04-25T04:38:13;17.10;45.30
43963;DHT22;29622;45.534;9.242;2023-04-25T04:43:15;17.00;45.40
43963;DHT22;29622;45.534;9.242;2023-04-25T04:48:36;16.90;45.50
43963;DHT22;29622;45.534;9.242;2023-04-25T04:53:52;16.80;45.80
43963;DHT22;29622;45.534;9.242;2023-04-25T04:59:13;16.70;45.90
43963;DHT22;29622;45.534;9.242;2023-04-25T05:04:32;16.60;46.00
43963;DHT22;29622;45.534;9.242;2023-04-25T05:09:44;16.50;46.10
43963;DHT22;29622;45.534;9.242;2023-04-25T05:14:51;16.50;46.20
43963;DHT22;29622;45.534;9.242;2023-04-25T05:20:14;16.40;46.30
43963;DHT22;29622;45.534;9.242;2023-04-25T05:25:34;16.50;46.40
43963;DHT22;29622;45.534;9.242;2023-04-25T05:30:48;16.50;46.50
43963;DHT22;29622;45.534;9.242;2023-04-25T05:35:51;16.60;46.50
43963;DHT22;29622;45.534;9.242;2023-04-25T05:40:53;16.80;46.30
43963;DHT22;29622;45.534;9.242;2023-04-25T05:46:26;16.90;46.10
43963;DHT22;29622;45.534;9.242;2023-04-25T05:51:58;17.10;46.10
43963;DHT22;29622;45.534;9.242;2023-04-25T05:57:23;17.30;45.70
43963;DHT22;29622;45.534;9.242;2023-04-25T06:02:24;17.50;45.80
43963;DHT22;29622;45.534;9.242;2023-04-25T06:07:25;17.80;45.60
43963;DHT22;29622;45.534;9.242;2023-04-25T06:12:26;18.10;45.40
43963;DHT22;29622;45.534;9.242;2023-04-25T06:17:28;18.20;45.30
43963;DHT22;29622;45.534;9.242;2023-04-25T06:22:29;18.60;45.40
43963;DHT22;29622;45.534;9.242;2023-04-25T06:27:31;19.00;45.00
43963;DHT22;29622;45.534;9.242;2023-04-25T06:32:31;19.30;44.50
43963;DHT22;29622;45.534;9.242;2023-04-25T06:37:34;19.50;44.50
43963;DHT22;29622;45.534;9.242;2023-04-25T06:42:36;19.80;44.20
43963;DHT22;29622;45.534;9.242;2023-04-25T06:47:57;20.10;44.00
43963;DHT22;29622;45.534;9.242;2023-04-25T06:52:57;20.50;43.50
43963;DHT22;29622;45.534;9.242;2023-04-25T06:57:58;20.40;43.10
43963;DHT22;29622;45.534;9.242;2023-04-25T07:03:17;20.60;43.30
43963;DHT22;29622;45.534;9.242;2023-04-25T07:08:18;20.70;43.00
43963;DHT22;29622;45.534;9.242;2023-04-25T07:13:19;20.70;42.80
43963;DHT22;29622;45.534;9.242;2023-04-25T07:18:20;20.70;42.70
43963;DHT22;29622;45.534;9.242;2023-04-25T07:23:21;20.60;42.60
43963;DHT22;29622;45.534;9.242;2023-04-25T07:28:22;20.60;42.70
43963;DHT22;29622;45.534;9.242;2023-04-25T07:33:22;20.60;42.70
43963;DHT22;29622;45.534;9.242;2023-04-25T07:38:24;20.70;42.70
43963;DHT22;29622;45.534;9.242;2023-04-25T07:43:25;20.70;42.60
43963;DHT22;29622;45.534;9.242;2023-04-25T07:48:31;20.60;42.60
43963;DHT22;29622;45.534;9.242;2023-04-25T07:53:32;20.60;42.50
43963;DHT22;29622;45.534;9.242;2023-04-25T07:58:38;20.60;42.60
43963;DHT22;29622;45.534;9.242;2023-04-25T08:03:42;20.60;42.40
43963;DHT22;29622;45.534;9.242;2023-04-25T08:08:49;20.70;42.30
43963;DHT22;29622;45.534;9.242;2023-04-25T08:13:53;20.70;42.30
43963;DHT22;29622;45.534;9.242;2023-04-25T08:18:54;20.80;42.20
43963;DHT22;29622;45.534;9.242;2023-04-25T08:23:56;20.90;42.00
43963;DHT22;29622;45.534;9.242;2023-04-25T08:29:02;20.90;42.00
43963;DHT22;29622;45.534;9.242;2023-04-25T08:34:03;21.00;41.90
43963;DHT22;29622;45.534;9.242;2023-04-25T08:39:33;21.20;41.70
43963;DHT22;29622;45.534;9.242;2023-04-25T08:44:53;21.40;41.50
43963;DHT22;29622;45.534;9.242;2023-04-25T08:49:54;21.30;41.30
43963;DHT22;29622;45.534;9.242;2023-04-25T08:54:57;21.40;41.30
43963;DHT22;29622;45.534;9.242;2023-04-25T09:00:01;21.40;41.20
43963;DHT22;29622;45.534;9.242;2023-04-25T09:05:02;21.40;41.20
43963;DHT22;29622;45.534;9.242;2023-04-25T09:10:04;21.40;41.00
43963;DHT22;29622;45.534;9.242;2023-04-25T09:15:12;21.30;41.00
43963;DHT22;29622;45.534;9.242;2023-04-25T09:20:32;21.40;41.20
43963;DHT22;29622;45.534;9.242;2023-04-25T09:25:36;21.40;41.00
43963;DHT22;29622;45.534;9.242;2023-04-25T09:30:41;21.40;41.30
43963;DHT22;29622;45.534;9.242;2023-04-25T09:36:07;21.50;41.30
43963;DHT22;29622;45.534;9.242;2023-04-25T09:41:25;21.50;41.10
43963;DHT22;29622;45.534;9.242;2023-04-25T09:46:34;21.40;41.00
43963;DHT22;29622;45.534;9.242;2023-04-25T09:51:37;21.40;41.10
43963;DHT22;29622;45.534;9.242;2023-04-25T09:56:40;21.50;41.20
43963;DHT22;29622;45.534;9.242;2023-04-25T10:01:43;21.50;41.00
43963;DHT22;29622;45.534;9.242;2023-04-25T10:06:49;21.50;40.90
43963;DHT22;29622;45.534;9.242;2023-04-25T10:11:54;21.50;40.90
43963;DHT22;29622;45.534;9.242;2023-04-25T10:16:58;21.60;41.10
43963;DHT22;29622;45.534;9.242;2023-04-25T10:27:05;21.70;40.90
43963;DHT22;29622;45.534;9.242;2023-04-25T10:32:06;21.80;40.90
43963;DHT22;29622;45.534;9.242;2023-04-25T10:37:09;21.90;40.90
43963;DHT22;29622;45.534;9.242;2023-04-25T10:42:11;22.00;40.70
43963;DHT22;29622;45.534;9.242;2023-04-25T10:47:12;22.00;40.60
43963;DHT22;29622;45.534;9.242;2023-04-25T10:52:24;22.00;40.70
43963;DHT22;29622;45.534;9.242;2023-04-25T10:57:42;21.90;40.50
43963;DHT22;29622;45.534;9.242;2023-04-25T11:03:02;21.90;40.50
43963;DHT22;29622;45.534;9.242;2023-04-25T11:08:13;22.00;40.40
43963;DHT22;29622;45.534;9.242;2023-04-25T11:13:14;22.00;40.60
43963;DHT22;29622;45.534;9.242;2023-04-25T11:18:19;22.00;40.60
43963;DHT22;29622;45.534;9.242;2023-04-25T11:23:19;22.00;40.50
43963;DHT22;29622;45.534;9.242;2023-04-25T11:28:21;22.00;40.80
43963;DHT22;29622;45.534;9.242;2023-04-25T11:33:24;22.00;40.10
43963;DHT22;29622;45.534;9.242;2023-04-25T11:38:27;22.10;40.10
43963;DHT22;29622;45.534;9.242;2023-04-25T11:43:28;22.20;40.30
43963;DHT22;29622;45.534;9.242;2023-04-25T11:48:39;22.40;40.20
43963;DHT22;29622;45.534;9.242;2023-04-25T11:53:47;22.50;40.00
43963;DHT22;29622;45.534;9.242;2023-04-25T11:59:10;22.50;39.90
43963;DHT22;29622;45.534;9.242;2023-04-25T12:04:13;22.50;39.70
43963;DHT22;29622;45.534;9.242;2023-04-25T12:09:20;22.60;39.90
43963;DHT22;29622;45.534;9.242;2023-04-25T12:14:26;22.60;39.70
43963;DHT22;29622;45.534;9.242;2023-04-25T12:19:33;22.60;39.50
43963;DHT22;29622;45.534;9.242;2023-04-25T12:24:34;22.60;39.20
43963;DHT22;29622;45.534;9.242;2023-04-25T12:29:37;22.50;39.40
43963;DHT22;29622;45.534;9.242;2023-04-25T12:34:38;22.40;39.50
43963;DHT22;29622;45.534;9.242;2023-04-25T12:39:42;22.40;39.40
43963;DHT22;29622;45.534;9.242;2023-04-25T12:44:48;22.40;39.40
43963;DHT22;29622;45.534;9.242;2023-04-25T12:49:59;22.30;40.10
43963;DHT22;29622;45.534;9.242;2023-04-25T12:55:00;22.00;39.50
43963;DHT22;29622;45.534;9.242;2023-04-25T13:00:01;21.40;40.10
43963;DHT22;29622;45.534;9.242;2023-04-25T13:05:05;20.70;40.40
43963;DHT22;29622;45.534;9.242;2023-04-25T13:10:06;20.20;42.10
43963;DHT22;29622;45.534;9.242;2023-04-25T13:15:08;20.10;43.10
43963;DHT22;29622;45.534;9.242;2023-04-25T13:20:10;20.10;43.10
43963;DHT22;29622;45.534;9.242;2023-04-25T13:25:11;20.20;43.20
43963;DHT22;29622;45.534;9.242;2023-04-25T13:30:13;20.30;43.20
43963;DHT22;29622;45.534;9.242;2023-04-25T13:35:17;20.30;43.30
43963;DHT22;29622;45.534;9.242;2023-04-25T13:40:17;20.30;43.50
43963;DHT22;29622;45.534;9.242;2023-04-25T13:45:19;20.40;43.60
43963;DHT22;29622;45.534;9.242;2023-04-25T13:50:21;20.70;43.40
43963;DHT22;29622;45.534;9.242;2023-04-25T13:55:22;21.00;43.00
43963;DHT22;29622;45.534;9.242;2023-04-25T14:00:23;21.20;42.60
43963;DHT22;29622;45.534;9.242;2023-04-25T14:05:23;21.40;42.30
43963;DHT22;29622;45.534;9.242;2023-04-25T14:10:24;21.60;42.00
43963;DHT22;29622;45.534;9.242;2023-04-25T14:15:25;21.80;41.70
43963;DHT22;29622;45.534;9.242;2023-04-25T14:20:26;22.00;41.60
43963;DHT22;29622;45.534;9.242;2023-04-25T14:25:27;22.20;41.60
43963;DHT22;29622;45.534;9.242;2023-04-25T14:30:28;22.40;41.40
43963;DHT22;29622;45.534;9.242;2023-04-25T14:35:29;22.50;41.20
43963;DHT22;29622;45.534;9.242;2023-04-25T14:40:29;22.70;40.80
43963;DHT22;29622;45.534;9.242;2023-04-25T14:45:30;22.80;40.60
43963;DHT22;29622;45.534;9.242;2023-04-25T14:50:34;22.90;40.60
43963;DHT22;29622;45.534;9.242;2023-04-25T14:55:35;23.00;40.50
43963;DHT22;29622;45.534;9.242;2023-04-25T15:00:35;23.20;40.20
43963;DHT22;29622;45.534;9.242;2023-04-25T15:05:37;23.30;40.00
43963;DHT22;29622;45.534;9.242;2023-04-25T15:10:38;23.40;39.90
43963;DHT22;29622;45.534;9.242;2023-04-25T15:15:38;23.50;39.70
43963;DHT22;29622;45.534;9.242;2023-04-25T15:20:40;23.70;39.60
43963;DHT22;29622;45.534;9.242;2023-04-25T15:25:40;23.80;39.40
43963;DHT22;29622;45.534;9.242;2023-04-25T15:30:42;24.00;39.70
43963;DHT22;29622;45.534;9.242;2023-04-25T15:35:44;24.10;38.80
43963;DHT22;29622;45.534;9.242;2023-04-25T15:40:44;24.30;38.30
43963;DHT22;29622;45.534;9.242;2023-04-25T15:45:45;24.40;38.30
43963;DHT22;29622;45.534;9.242;2023-04-25T15:50:46;24.60;38.20
43963;DHT22;29622;45.534;9.242;2023-04-25T15:55:47;24.70;38.00
43963;DHT22;29622;45.534;9.242;2023-04-25T16:00:47;24.90;37.80
43963;DHT22;29622;45.534;9.242;2023-04-25T16:05:49;25.00;37.40
43963;DHT22;29622;45.534;9.242;2023-04-25T16:10:50;25.00;37.30
43963;DHT22;29622;45.534;9.242;2023-04-25T16:15:51;25.20;37.20
43963;DHT22;29622;45.534;9.242;2023-04-25T16:20:51;25.30;37.00
43963;DHT22;29622;45.534;9.242;2023-04-25T16:25:52;25.40;36.80
43963;DHT22;29622;45.534;9.242;2023-04-25T16:30:54;25.40;36.60
43963;DHT22;29622;45.534;9.242;2023-04-25T16:35:55;25.40;36.50
43963;DHT22;29622;45.534;9.242;2023-04-25T16:40:55;25.30;36.50
43963;DHT22;29622;45.534;9.242;2023-04-25T16:45:56;25.20;36.80
43963;DHT22;29622;45.534;9.242;2023-04-25T16:50:57;25.00;36.90
43963;DHT22;29622;45.534;9.242;2023-04-25T16:55:58;24.80;37.20
43963;DHT22;29622;45.534;9.242;2023-04-25T17:00:59;24.70;37.10
43963;DHT22;29622;45.534;9.242;2023-04-25T17:05:59;24.50;36.70
43963;DHT22;29622;45.534;9.242;2023-04-25T17:11:01;24.30;36.70
43963;DHT22;29622;45.534;9.242;2023-04-25T17:16:03;24.20;36.80
43963;DHT22;29622;45.534;9.242;2023-04-25T17:21:04;24.00;36.50
43963;DHT22;29622;45.534;9.242;2023-04-25T17:26:05;23.80;36.20
43963;DHT22;29622;45.534;9.242;2023-04-25T17:31:09;23.70;36.60
43963;DHT22;29622;45.534;9.242;2023-04-25T17:36:10;23.60;36.90
43963;DHT22;29622;45.534;9.242;2023-04-25T17:41:10;23.50;36.80
43963;DHT22;29622;45.534;9.242;2023-04-25T17:46:12;23.30;37.20
43963;DHT22;29622;45.534;9.242;2023-04-25T17:51:13;23.10;37.70
43963;DHT22;29622;45.534;9.242;2023-04-25T17:56:13;22.80;38.00
43963;DHT22;29622;45.534;9.242;2023-04-25T18:01:15;22.40;38.20
43963;DHT22;29622;45.534;9.242;2023-04-25T18:06:16;22.00;38.60
43963;DHT22;29622;45.534;9.242;2023-04-25T18:11:17;21.80;39.00
43963;DHT22;29622;45.534;9.242;2023-04-25T18:16:18;21.50;39.40
43963;DHT22;29622;45.534;9.242;2023-04-25T18:21:19;21.20;39.60
43963;DHT22;29622;45.534;9.242;2023-04-25T18:26:21;21.00;39.80
43963;DHT22;29622;45.534;9.242;2023-04-25T18:31:22;20.90;40.00
43963;DHT22;29622;45.534;9.242;2023-04-25T18:36:24;20.80;40.20
43963;DHT22;29622;45.534;9.242;2023-04-25T18:41:27;20.80;40.30
43963;DHT22;29622;45.534;9.242;2023-04-25T18:46:31;20.80;40.30
43963;DHT22;29622;45.534;9.242;2023-04-25T18:51:32;20.80;40.60
43963;DHT22;29622;45.534;9.242;2023-04-25T18:56:33;20.80;40.50
43963;DHT22;29622;45.534;9.242;2023-04-25T19:01:33;20.70;40.60
43963;DHT22;29622;45.534;9.242;2023-04-25T19:06:34;20.30;40.80
43963;DHT22;29622;45.534;9.242;2023-04-25T19:11:35;20.00;41.30
43963;DHT22;29622;45.534;9.242;2023-04-25T19:16:36;19.90;41.80
43963;DHT22;29622;45.534;9.242;2023-04-25T19:21:39;19.70;41.60
43963;DHT22;29622;45.534;9.242;2023-04-25T19:26:41;19.70;41.80
43963;DHT22;29622;45.534;9.242;2023-04-25T19:31:43;19.70;41.80
43963;DHT22;29622;45.534;9.242;2023-04-25T19:36:43;19.50;41.90
43963;DHT22;29622;45.534;9.242;2023-04-25T19:41:44;19.70;42.50
43963;DHT22;29622;45.534;9.242;2023-04-25T19:46:45;20.20;42.80
43963;DHT22;29622;45.534;9.242;2023-04-25T19:51:48;20.60;42.70
43963;DHT22;29622;45.534;9.242;2023-04-25T19:56:48;20.90;42.20
43963;DHT22;29622;45.534;9.242;2023-04-25T20:01:49;20.60;41.50
43963;DHT22;29622;45.534;9.242;2023-04-25T20:06:50;19.90;41.70
43963;DHT22;29622;45.534;9.242;2023-04-25T20:11:51;19.40;42.10
43963;DHT22;29622;45.534;9.242;2023-04-25T20:16:52;18.90;42.50
43963;DHT22;29622;45.534;9.242;2023-04-25T20:21:53;18.50;42.90
43963;DHT22;29622;45.534;9.242;2023-04-25T20:26:54;18.10;43.30
43963;DHT22;29622;45.534;9.242;2023-04-25T20:31:55;17.80;43.70
43963;DHT22;29622;45.534;9.242;2023-04-25T20:36:56;17.60;44.10
43963;DHT22;29622;45.534;9.242;2023-04-25T20:41:57;17.50;44.60
43963;DHT22;29622;45.534;9.242;2023-04-25T20:46:58;17.90;45.10
43963;DHT22;29622;45.534;9.242;2023-04-25T20:51:58;18.10;44.60
43963;DHT22;29622;45.534;9.242;2023-04-25T20:56:59;18.50;45.20
43963;DHT22;29622;45.534;9.242;2023-04-25T21:02:01;18.70;45.00
43963;DHT22;29622;45.534;9.242;2023-04-25T21:07:02;19.10;44.70
43963;DHT22;29622;45.534;9.242;2023-04-25T21:12:03;18.90;43.90
43963;DHT22;29622;45.534;9.242;2023-04-25T21:17:03;18.50;43.90
43963;DHT22;29622;45.534;9.242;2023-04-25T21:22:04;18.20;44.30
43963;DHT22;29622;45.534;9.242;2023-04-25T21:27:05;17.90;44.60
43963;DHT22;29622;45.534;9.242;2023-04-25T21:32:06;17.60;45.00
43963;DHT22;29622;45.534;9.242;2023-04-25T21:37:06;17.40;45.00
43963;DHT22;29622;45.534;9.242;2023-04-25T21:42:07;17.20;45.20
43963;DHT22;29622;45.534;9.242;2023-04-25T21:47:08;17.00;45.40
43963;DHT22;29622;45.534;9.242;2023-04-25T21:52:09;16.80;45.60
43963;DHT22;29622;45.534;9.242;2023-04-25T21:57:10;16.70;45.80
43963;DHT22;29622;45.534;9.242;2023-04-25T22:02:11;16.50;45.90
43963;DHT22;29622;45.534;9.242;2023-04-25T22:07:15;16.40;46.10
43963;DHT22;29622;45.534;9.242;2023-04-25T22:12:15;16.30;46.40
43963;DHT22;29622;45.534;9.242;2023-04-25T22:17:16;16.30;46.60
43963;DHT22;29622;45.534;9.242;2023-04-25T22:22:18;16.20;46.80
43963;DHT22;29622;45.534;9.242;2023-04-25T22:27:18;16.20;46.90
43963;DHT22;29622;45.534;9.242;2023-04-25T22:32:19;16.10;47.00
43963;DHT22;29622;45.534;9.242;2023-04-25T22:37:19;16.10;47.20
43963;DHT22;29622;45.534;9.242;2023-04-25T22:42:20;16.00;47.30
43963;DHT22;29622;45.534;9.242;2023-04-25T22:47:21;16.00;47.50
43963;DHT22;29622;45.534;9.242;2023-04-25T22:52:23;15.90;47.60
43963;DHT22;29622;45.534;9.242;2023-04-25T22:57:24;15.80;47.80
43963;DHT22;29622;45.534;9.242;2023-04-25T23:02:25;15.80;47.90
43963;DHT22;29622;45.534;9.242;2023-04-25T23:07:26;15.80;48.10
43963;DHT22;29622;45.534;9.242;2023-04-25T23:12:28;15.80;48.10
43963;DHT22;29622;45.534;9.242;2023-04-25T23:17:29;15.80;48.20
43963;DHT22;29622;45.534;9.242;2023-04-25T23:22:29;15.80;48.40
43963;DHT22;29622;45.534;9.242;2023-04-25T23:27:30;15.80;48.60
43963;DHT22;29622;45.534;9.242;2023-04-25T23:32:31;15.80;48.50
43963;DHT22;29622;45.534;9.242;2023-04-25T23:37:35;15.70;48.60
43963;DHT22;29622;45.534;9.242;2023-04-25T23:42:37;15.70;48.60
43963;DHT22;29622;45.534;9.242;2023-04-25T23:47:38;15.70;48.70
43963;DHT22;29622;45.534;9.242;2023-04-25T23:52:39;15.60;48.70
43963;DHT22;29622;45.534;9.242;2023-04-25T23:57:40;15.60;48.90
